Time;durP1;ratioP1;P1;durP2;ratioP2;P2;SDS_P1;SDS_P2;PMS_P1;PMS_P2;Temp;Humidity;BMP_temperature;BMP_pressure;BME280_temperature;BME280_humidity;BME280_pressure;Samples;Min_cycle;Max_cycle;Signal;HPM_P1;HPM_P2
2022/11/03 00:00:25;;;;;;;;;;;18.80;54.40;;;;;;5052277;28;19912;-61
2022/11/03 00:02:51;;;;;;;;;;;18.80;54.40;;;;;;5052388;28;20058;-61
2022/11/03 00:08:01;;;;;;;;;;;18.80;54.30;;;;;;5066386;28;20330;-74
2022/11/03 00:10:26;;;;;;;;;;;18.80;54.40;;;;;;5035589;28;20323;-74
2022/11/03 00:12:52;;;;;;;;;;;18.70;54.40;;;;;;5051142;28;19959;-74
2022/11/03 00:15:17;;;;;;;;;;;18.70;54.30;;;;;;5053358;28;20026;-74
2022/11/03 00:17:44;;;;;;;;;;;18.70;54.40;;;;;;5035282;28;19909;-74
2022/11/03 00:20:10;;;;;;;;;;;18.70;54.30;;;;;;5035396;28;19916;-74
2022/11/03 00:22:35;;;;;;;;;;;18.70;54.40;;;;;;5051571;28;20315;-74
2022/11/03 00:25:01;;;;;;;;;;;18.70;54.30;;;;;;5051841;28;19909;-75
2022/11/03 00:27:26;;;;;;;;;;;18.70;54.30;;;;;;5051361;28;19975;-74
2022/11/03 00:29:52;;;;;;;;;;;18.70;54.20;;;;;;5052668;28;20271;-74
2022/11/03 00:32:17;;;;;;;;;;;18.70;54.30;;;;;;5053107;28;20322;-74
2022/11/03 00:34:43;;;;;;;;;;;18.70;54.30;;;;;;5051651;28;19909;-74
2022/11/03 00:37:08;;;;;;;;;;;18.70;54.30;;;;;;5051770;28;19909;-74
2022/11/03 00:39:34;;;;;;;;;;;18.70;54.30;;;;;;5051844;28;20016;-74
2022/11/03 00:41:59;;;;;;;;;;;18.70;54.20;;;;;;5052481;28;19909;-74
2022/11/03 00:44:26;;;;;;;;;;;18.70;54.40;;;;;;5051108;28;19913;-74
2022/11/03 00:46:51;;;;;;;;;;;18.70;54.40;;;;;;5053192;28;19909;-75
2022/11/03 00:49:17;;;;;;;;;;;18.60;54.20;;;;;;5035079;28;20015;-74
2022/11/03 00:51:42;;;;;;;;;;;18.60;54.30;;;;;;5052729;28;19909;-75
2022/11/03 00:54:08;;;;;;;;;;;18.60;54.30;;;;;;5053065;28;19909;-74
2022/11/03 00:56:37;;;;;;;;;;;18.70;54.30;;;;;;5052150;28;19908;-74
2022/11/03 00:59:02;;;;;;;;;;;18.60;54.30;;;;;;5034291;28;19909;-74
2022/11/03 01:01:32;;;;;;;;;;;18.70;54.40;;;;;;5034569;28;20298;-75
2022/11/03 01:06:52;;;;;;;;;;;18.60;54.40;;;;;;5051582;28;20008;-75
2022/11/03 01:09:21;;;;;;;;;;;18.60;54.50;;;;;;5052755;28;19909;-74
2022/11/03 01:11:50;;;;;;;;;;;18.60;54.50;;;;;;5052096;28;20328;-74
2022/11/03 01:14:15;;;;;;;;;;;18.60;54.50;;;;;;5055999;28;19916;-74
2022/11/03 01:16:41;;;;;;;;;;;18.60;54.40;;;;;;5038592;28;19909;-74
2022/11/03 01:19:06;;;;;;;;;;;18.60;54.40;;;;;;5056250;28;19908;-74
2022/11/03 01:21:32;;;;;;;;;;;18.60;54.40;;;;;;5038492;28;19908;-74
2022/11/03 01:24:01;;;;;;;;;;;18.50;54.30;;;;;;5055111;28;19919;-74
2022/11/03 01:26:26;;;;;;;;;;;18.50;54.50;;;;;;5054644;28;19984;-74
2022/11/03 01:28:52;;;;;;;;;;;18.50;54.40;;;;;;5054540;28;20354;-74
2022/11/03 01:31:18;;;;;;;;;;;18.40;54.60;;;;;;5054920;28;19915;-74
2022/11/03 01:33:46;;;;;;;;;;;18.40;54.50;;;;;;5054893;28;20372;-74
2022/11/03 01:36:12;;;;;;;;;;;18.40;54.60;;;;;;5056015;28;19909;-74
2022/11/03 01:38:37;;;;;;;;;;;18.40;54.60;;;;;;5056361;28;19909;-74
2022/11/03 01:41:03;;;;;;;;;;;18.50;54.60;;;;;;5054487;28;19919;-74
2022/11/03 01:43:30;;;;;;;;;;;18.50;54.60;;;;;;5054238;28;20362;-74
2022/11/03 01:45:59;;;;;;;;;;;18.50;54.50;;;;;;5054878;28;19916;-74
2022/11/03 01:48:25;;;;;;;;;;;18.50;54.40;;;;;;5037845;28;19912;-74
2022/11/03 01:50:50;;;;;;;;;;;18.50;54.40;;;;;;5054726;28;19915;-74
2022/11/03 01:53:16;;;;;;;;;;;18.50;54.40;;;;;;5054917;28;19999;-74
2022/11/03 01:55:41;;;;;;;;;;;18.40;54.50;;;;;;5055846;28;19909;-75
2022/11/03 01:58:09;;;;;;;;;;;18.40;54.50;;;;;;5054904;28;19909;-75
2022/11/03 02:00:34;;;;;;;;;;;18.40;54.60;;;;;;5054457;28;19913;-74
2022/11/03 02:03:00;;;;;;;;;;;18.40;54.40;;;;;;5054156;28;19913;-74
2022/11/03 02:05:25;;;;;;;;;;;18.40;54.50;;;;;;5054303;28;19972;-74
2022/11/03 02:07:52;;;;;;;;;;;18.40;54.50;;;;;;5054350;28;19916;-74
2022/11/03 02:10:18;;;;;;;;;;;18.40;54.50;;;;;;5054210;28;20003;-74
2022/11/03 02:12:43;;;;;;;;;;;18.30;54.40;;;;;;5054604;28;19940;-74
2022/11/03 02:15:09;;;;;;;;;;;18.40;54.40;;;;;;5037679;28;19916;-74
2022/11/03 02:17:35;;;;;;;;;;;18.40;54.40;;;;;;5037489;28;19913;-74
2022/11/03 02:20:04;;;;;;;;;;;18.40;54.30;;;;;;5054474;28;19909;-74
2022/11/03 02:22:33;;;;;;;;;;;18.40;54.10;;;;;;5053964;28;20371;-75
2022/11/03 02:25:08;;;;;;;;;;;18.50;54.00;;;;;;5054296;28;19912;-74
2022/11/03 02:27:33;;;;;;;;;;;18.50;54.00;;;;;;5036873;28;19908;-74
2022/11/03 02:29:59;;;;;;;;;;;18.50;53.80;;;;;;5036964;28;19920;-75
2022/11/03 02:32:25;;;;;;;;;;;18.60;53.80;;;;;;5055045;28;19913;-74
2022/11/03 02:34:53;;;;;;;;;;;18.50;53.70;;;;;;5054141;28;19932;-74
2022/11/03 02:37:20;;;;;;;;;;;18.50;53.80;;;;;;5036954;28;19916;-74
2022/11/03 02:39:46;;;;;;;;;;;18.50;53.80;;;;;;5054243;28;19909;-74
2022/11/03 02:42:11;;;;;;;;;;;18.50;53.90;;;;;;5053392;28;20339;-74
2022/11/03 02:44:37;;;;;;;;;;;18.50;54.00;;;;;;5036264;28;19959;-74
2022/11/03 02:47:03;;;;;;;;;;;18.50;53.90;;;;;;5040266;28;19909;-74
2022/11/03 02:49:28;;;;;;;;;;;18.50;53.80;;;;;;5036803;28;19909;-74
2022/11/03 02:52:00;;;;;;;;;;;18.50;53.80;;;;;;5053540;28;20331;-74
2022/11/03 02:54:27;;;;;;;;;;;18.50;53.80;;;;;;5053423;28;19945;-74
2022/11/03 02:56:54;;;;;;;;;;;18.50;53.90;;;;;;5036202;28;19912;-74
2022/11/03 02:59:24;;;;;;;;;;;18.50;53.70;;;;;;5053282;28;19908;-74
2022/11/03 03:01:51;;;;;;;;;;;18.50;53.70;;;;;;5053330;28;20003;-74
2022/11/03 03:04:19;;;;;;;;;;;18.50;53.80;;;;;;5052864;28;19925;-74
2022/11/03 03:06:46;;;;;;;;;;;18.50;53.70;;;;;;5053305;28;19913;-75
2022/11/03 03:09:14;;;;;;;;;;;18.60;53.80;;;;;;5066371;28;19908;-75
2022/11/03 03:11:39;;;;;;;;;;;18.60;53.80;;;;;;5055849;28;20372;-75
2022/11/03 03:14:07;;;;;;;;;;;18.60;53.80;;;;;;5072694;28;19920;-75
2022/11/03 03:16:33;;;;;;;;;;;18.60;53.80;;;;;;5056109;28;19957;-74
2022/11/03 03:19:02;;;;;;;;;;;18.50;53.70;;;;;;5058709;28;19931;-74
2022/11/03 03:21:29;;;;;;;;;;;18.50;53.80;;;;;;5036051;28;19935;-74
2022/11/03 03:23:59;;;;;;;;;;;18.50;53.80;;;;;;5052701;28;19963;-74
2022/11/03 03:26:27;;;;;;;;;;;18.50;53.70;;;;;;5052288;28;19935;-74
2022/11/03 03:28:54;;;;;;;;;;;18.50;54.00;;;;;;5035738;28;19913;-74
2022/11/03 03:31:20;;;;;;;;;;;18.50;53.80;;;;;;5052576;28;19908;-75
2022/11/03 03:33:45;;;;;;;;;;;18.50;53.70;;;;;;5035864;28;19908;-75
2022/11/03 03:36:12;;;;;;;;;;;18.50;53.70;;;;;;5035663;28;19956;-74
2022/11/03 03:38:38;;;;;;;;;;;18.60;53.80;;;;;;5054019;28;20003;-74
2022/11/03 03:41:04;;;;;;;;;;;18.60;53.90;;;;;;5052065;28;19944;-74
2022/11/03 03:43:29;;;;;;;;;;;18.60;53.80;;;;;;5035214;28;19954;-74
2022/11/03 03:45:55;;;;;;;;;;;18.60;54.20;;;;;;5053653;28;20186;-74
2022/11/03 03:48:21;;;;;;;;;;;18.60;53.80;;;;;;5052377;28;19909;-74
2022/11/03 03:50:46;;;;;;;;;;;18.60;53.80;;;;;;5053754;28;19932;-75
2022/11/03 03:53:12;;;;;;;;;;;18.60;53.80;;;;;;5052117;28;19909;-75
2022/11/03 03:55:38;;;;;;;;;;;18.60;53.60;;;;;;5052349;28;19917;-75
2022/11/03 03:58:04;;;;;;;;;;;18.60;53.60;;;;;;5051191;28;19909;-74
2022/11/03 04:00:29;;;;;;;;;;;18.60;53.50;;;;;;5053410;28;19919;-75
2022/11/03 04:02:55;;;;;;;;;;;18.60;53.70;;;;;;5053138;28;19943;-75
2022/11/03 04:05:21;;;;;;;;;;;18.60;53.50;;;;;;5051892;28;19962;-75
2022/11/03 04:07:46;;;;;;;;;;;18.60;53.40;;;;;;5053432;28;20428;-75
2022/11/03 04:10:12;;;;;;;;;;;18.60;53.60;;;;;;5052057;28;20291;-75
2022/11/03 04:23:36;;;;;;;;;;;18.50;53.70;;;;;;5052966;28;19923;-74
2022/11/03 04:26:01;;;;;;;;;;;18.50;53.60;;;;;;5052673;28;19909;-75
2022/11/03 04:28:27;;;;;;;;;;;18.50;53.70;;;;;;5034660;28;19956;-75
2022/11/03 04:30:57;;;;;;;;;;;18.40;53.70;;;;;;5034955;28;20007;-75
2022/11/03 04:33:22;;;;;;;;;;;18.40;53.50;;;;;;5051452;28;19992;-75
2022/11/03 04:35:48;;;;;;;;;;;18.40;53.40;;;;;;5034933;28;19912;-75
2022/11/03 04:38:14;;;;;;;;;;;18.50;53.40;;;;;;5051868;28;20000;-75
2022/11/03 04:40:43;;;;;;;;;;;18.50;53.50;;;;;;5051446;28;19937;-75
2022/11/03 04:43:09;;;;;;;;;;;18.50;53.60;;;;;;5050380;28;20425;-75
2022/11/03 04:45:34;;;;;;;;;;;18.40;53.40;;;;;;5051348;28;19916;-75
2022/11/03 04:48:00;;;;;;;;;;;18.40;53.50;;;;;;5050654;28;19913;-75
2022/11/03 04:50:26;;;;;;;;;;;18.50;53.50;;;;;;5051461;28;20332;-75
2022/11/03 04:52:55;;;;;;;;;;;18.50;53.70;;;;;;5034488;28;19916;-75
2022/11/03 04:55:20;;;;;;;;;;;18.40;53.40;;;;;;5034994;28;19909;-75
2022/11/03 04:57:46;;;;;;;;;;;18.40;53.60;;;;;;5050258;28;19916;-74
2022/11/03 05:00:16;;;;;;;;;;;18.40;53.60;;;;;;5034588;28;19913;-74
2022/11/03 05:02:42;;;;;;;;;;;18.40;53.50;;;;;;5051008;28;19960;-74
2022/11/03 05:05:28;;;;;;;;;;;18.40;53.40;;;;;;5051131;28;19959;-74
2022/11/03 05:07:54;;;;;;;;;;;18.40;54.20;;;;;;5052083;28;19932;-74
2022/11/03 05:10:20;;;;;;;;;;;18.40;53.40;;;;;;5051230;28;19909;-75
2022/11/03 05:12:46;;;;;;;;;;;18.40;53.50;;;;;;5050562;28;19909;-74
2022/11/03 05:15:27;;;;;;;;;;;18.40;53.40;;;;;;5050957;28;19909;-75
2022/11/03 05:17:52;;;;;;;;;;;18.40;53.40;;;;;;5035819;28;19916;-74
2022/11/03 05:20:36;;;;;;;;;;;18.40;53.20;;;;;;5051156;28;19909;-74
2022/11/03 05:23:02;;;;;;;;;;;18.40;53.10;;;;;;5034394;28;19932;-75
2022/11/03 05:25:54;;;;;;;;;;;18.40;53.20;;;;;;5051197;28;19909;-74
2022/11/03 05:28:21;;;;;;;;;;;18.50;53.10;;;;;;5049182;28;19948;-74
2022/11/03 05:30:47;;;;;;;;;;;18.50;53.20;;;;;;5051145;28;19959;-75
2022/11/03 05:33:20;;;;;;;;;;;18.40;53.10;;;;;;5050978;28;19955;-74
2022/11/03 05:35:45;;;;;;;;;;;18.50;53.10;;;;;;5050950;28;20003;-75
2022/11/03 05:38:11;;;;;;;;;;;18.40;52.90;;;;;;5055934;28;19951;-74
2022/11/03 05:40:36;;;;;;;;;;;18.40;53.10;;;;;;5070877;28;19908;-75
2022/11/03 05:43:02;;;;;;;;;;;18.40;53.00;;;;;;5070003;28;19909;-73
2022/11/03 05:45:34;;;;;;;;;;;18.40;53.10;;;;;;5070930;28;19965;-74
2022/11/03 05:48:00;;;;;;;;;;;18.40;53.10;;;;;;5070889;28;19915;-75
2022/11/03 05:50:29;;;;;;;;;;;18.40;53.10;;;;;;5070927;28;19916;-74
2022/11/03 05:52:55;;;;;;;;;;;18.40;52.90;;;;;;5071971;28;20019;-75
2022/11/03 05:55:30;;;;;;;;;;;18.40;53.10;;;;;;5071002;28;19915;-74
2022/11/03 05:57:56;;;;;;;;;;;18.40;53.10;;;;;;5052875;28;19929;-75
2022/11/03 06:00:29;;;;;;;;;;;18.40;53.10;;;;;;5057073;28;19916;-74
2022/11/03 06:02:55;;;;;;;;;;;18.40;53.10;;;;;;5074033;28;19983;-74
2022/11/03 06:05:21;;;;;;;;;;;18.40;53.20;;;;;;5074172;28;20364;-74
2022/11/03 06:07:51;;;;;;;;;;;18.40;53.10;;;;;;5063894;28;19908;-74
2022/11/03 06:10:17;;;;;;;;;;;18.40;53.10;;;;;;5054273;28;19909;-74
2022/11/03 06:12:42;;;;;;;;;;;18.40;53.10;;;;;;5054291;28;19955;-74
2022/11/03 06:15:08;;;;;;;;;;;18.30;53.00;;;;;;5054025;28;19909;-74
2022/11/03 06:17:33;;;;;;;;;;;18.30;53.20;;;;;;5053939;28;19920;-74
2022/11/03 06:19:59;;;;;;;;;;;18.30;53.20;;;;;;5054017;28;19917;-75
2022/11/03 06:22:33;;;;;;;;;;;18.30;53.20;;;;;;5053904;28;19928;-75
2022/11/03 06:25:19;;;;;;;;;;;18.30;53.50;;;;;;5055081;28;19958;-74
2022/11/03 06:27:44;;;;;;;;;;;18.30;53.50;;;;;;5053752;28;19909;-74
2022/11/03 06:30:18;;;;;;;;;;;18.20;53.50;;;;;;5037186;28;19965;-74
2022/11/03 06:32:43;;;;;;;;;;;18.30;53.50;;;;;;5053421;28;19963;-75
2022/11/03 06:35:09;;;;;;;;;;;18.30;53.30;;;;;;5054852;28;19936;-74
2022/11/03 06:37:34;;;;;;;;;;;18.30;53.50;;;;;;5053262;28;19920;-74
2022/11/03 06:40:09;;;;;;;;;;;18.20;53.40;;;;;;5074822;28;19916;-74
2022/11/03 06:42:34;;;;;;;;;;;18.20;53.50;;;;;;5074332;28;19912;-74
2022/11/03 06:45:00;;;;;;;;;;;18.20;53.50;;;;;;5073285;28;19920;-74
2022/11/03 06:47:26;;;;;;;;;;;18.20;53.30;;;;;;5063264;28;19966;-74
2022/11/03 06:49:53;;;;;;;;;;;18.30;53.30;;;;;;5053497;28;19916;-74
2022/11/03 06:52:24;;;;;;;;;;;18.30;53.40;;;;;;5054661;28;19909;-74
2022/11/03 06:54:56;;;;;;;;;;;18.20;53.30;;;;;;5053177;28;19909;-74
2022/11/03 06:57:21;;;;;;;;;;;18.20;53.30;;;;;;5053972;28;20007;-74
2022/11/03 06:59:48;;;;;;;;;;;18.30;53.30;;;;;;5053843;28;20003;-74
2022/11/03 07:02:23;;;;;;;;;;;18.20;53.20;;;;;;5052939;28;19916;-74
2022/11/03 07:04:48;;;;;;;;;;;18.20;53.30;;;;;;5052825;28;19920;-74
2022/11/03 07:07:14;;;;;;;;;;;18.20;53.30;;;;;;5036471;28;19963;-74
2022/11/03 07:09:39;;;;;;;;;;;18.20;53.50;;;;;;5054071;28;19908;-74
2022/11/03 07:12:05;;;;;;;;;;;18.20;53.40;;;;;;5052564;28;20394;-75
2022/11/03 07:14:31;;;;;;;;;;;18.20;53.50;;;;;;5035855;28;20403;-74
2022/11/03 07:17:03;;;;;;;;;;;18.20;53.50;;;;;;5054160;28;20391;-74
2022/11/03 07:19:32;;;;;;;;;;;18.20;53.50;;;;;;5053560;28;19909;-74
2022/11/03 07:21:58;;;;;;;;;;;18.20;53.40;;;;;;5036245;28;19969;-74
2022/11/03 07:24:30;;;;;;;;;;;18.20;53.50;;;;;;5052655;28;20295;-74
2022/11/03 07:27:14;;;;;;;;;;;18.20;53.50;;;;;;5052214;28;20252;-74
2022/11/03 07:29:40;;;;;;;;;;;18.20;53.50;;;;;;5052037;28;19970;-74
2022/11/03 07:32:17;;;;;;;;;;;18.20;53.50;;;;;;5052452;28;20363;-74
2022/11/03 07:34:43;;;;;;;;;;;18.20;53.50;;;;;;5052371;28;19915;-74
2022/11/03 07:37:09;;;;;;;;;;;18.20;53.50;;;;;;5035699;28;19909;-74
2022/11/03 07:39:35;;;;;;;;;;;18.20;53.30;;;;;;5052502;28;19978;-75
2022/11/03 07:42:02;;;;;;;;;;;18.20;53.50;;;;;;5051975;28;19912;-75
2022/11/03 07:44:27;;;;;;;;;;;18.20;53.50;;;;;;5051603;28;19935;-74
2022/11/03 07:46:53;;;;;;;;;;;18.20;53.50;;;;;;5035405;28;19909;-74
2022/11/03 07:49:25;;;;;;;;;;;18.20;53.50;;;;;;5052140;28;19909;-74
2022/11/03 07:51:51;;;;;;;;;;;18.20;53.50;;;;;;5035421;28;19928;-74
2022/11/03 07:54:16;;;;;;;;;;;18.20;53.50;;;;;;5052098;28;19908;-74
2022/11/03 07:56:42;;;;;;;;;;;18.20;53.50;;;;;;5052846;28;19994;-74
2022/11/03 07:59:08;;;;;;;;;;;18.20;53.50;;;;;;5051631;28;20378;-74
2022/11/03 08:01:33;;;;;;;;;;;18.20;53.50;;;;;;5053001;28;19971;-74
2022/11/03 08:04:00;;;;;;;;;;;18.20;53.50;;;;;;5051644;28;19913;-74
2022/11/03 08:06:25;;;;;;;;;;;18.20;53.50;;;;;;5051923;28;20263;-74
2022/11/03 08:08:51;;;;;;;;;;;18.20;53.50;;;;;;5061947;28;19909;-74
2022/11/03 08:11:16;;;;;;;;;;;18.20;53.50;;;;;;5072588;28;20260;-74
2022/11/03 08:13:42;;;;;;;;;;;18.20;53.30;;;;;;5071296;28;19978;-74
2022/11/03 08:16:07;;;;;;;;;;;18.20;53.40;;;;;;5073055;28;20007;-74
2022/11/03 08:18:33;;;;;;;;;;;18.20;53.40;;;;;;5054926;28;19928;-75
2022/11/03 08:20:58;;;;;;;;;;;18.20;53.30;;;;;;5071061;28;19908;-74
2022/11/03 08:23:24;;;;;;;;;;;18.20;53.40;;;;;;5072561;28;19919;-74
2022/11/03 08:25:49;;;;;;;;;;;18.20;53.50;;;;;;5071879;28;20007;-74
2022/11/03 08:28:15;;;;;;;;;;;18.20;53.50;;;;;;5072341;28;19912;-74
2022/11/03 08:30:40;;;;;;;;;;;18.20;53.50;;;;;;5073077;28;19924;-74
2022/11/03 08:33:05;;;;;;;;;;;18.10;53.40;;;;;;5072740;28;19908;-74
2022/11/03 08:35:31;;;;;;;;;;;18.20;53.50;;;;;;5071530;28;19916;-74
2022/11/03 08:37:56;;;;;;;;;;;18.20;53.50;;;;;;5071034;28;20474;-75
2022/11/03 08:40:22;;;;;;;;;;;18.20;53.50;;;;;;5072602;28;20364;-75
2022/11/03 08:42:48;;;;;;;;;;;18.20;53.40;;;;;;5070439;28;19931;-74
2022/11/03 08:45:15;;;;;;;;;;;18.20;53.30;;;;;;5072718;28;19919;-74
2022/11/03 08:47:40;;;;;;;;;;;18.20;53.50;;;;;;5059230;28;19962;-74
2022/11/03 08:50:06;;;;;;;;;;;18.20;53.50;;;;;;5051370;28;19908;-74
2022/11/03 08:52:31;;;;;;;;;;;18.20;53.30;;;;;;5052322;28;20008;-74
2022/11/03 08:54:57;;;;;;;;;;;18.20;53.30;;;;;;5051404;28;20042;-74
2022/11/03 08:57:22;;;;;;;;;;;18.20;53.30;;;;;;5050814;28;19909;-74
2022/11/03 08:59:48;;;;;;;;;;;18.20;53.30;;;;;;5052135;28;19909;-75
2022/11/03 09:02:13;;;;;;;;;;;18.20;53.30;;;;;;5051039;28;19908;-74
2022/11/03 09:04:38;;;;;;;;;;;18.20;53.30;;;;;;5050961;28;20414;-74
2022/11/03 09:07:04;;;;;;;;;;;18.20;53.50;;;;;;5067953;28;19908;-75
2022/11/03 09:09:29;;;;;;;;;;;18.20;53.40;;;;;;5051516;28;19913;-74
2022/11/03 09:11:55;;;;;;;;;;;18.20;53.40;;;;;;5050824;28;19920;-74
2022/11/03 09:14:20;;;;;;;;;;;18.20;53.30;;;;;;5051849;28;19936;-74
2022/11/03 09:16:46;;;;;;;;;;;18.20;53.20;;;;;;5034450;28;19915;-74
2022/11/03 09:19:11;;;;;;;;;;;18.20;53.20;;;;;;5052219;28;19940;-74
2022/11/03 09:21:36;;;;;;;;;;;18.20;53.10;;;;;;5052184;28;19959;-74
2022/11/03 09:24:02;;;;;;;;;;;18.30;53.20;;;;;;5052059;28;19963;-75
2022/11/03 09:26:27;;;;;;;;;;;18.20;53.20;;;;;;5033982;28;19919;-74
2022/11/03 09:28:53;;;;;;;;;;;18.20;53.20;;;;;;5050858;28;19961;-75
2022/11/03 09:31:18;;;;;;;;;;;18.20;53.30;;;;;;5050946;28;19991;-74
2022/11/03 09:33:44;;;;;;;;;;;18.20;53.20;;;;;;5053392;28;19909;-74
2022/11/03 09:36:09;;;;;;;;;;;18.20;53.30;;;;;;5038295;28;19909;-75
2022/11/03 09:38:35;;;;;;;;;;;18.20;53.30;;;;;;5054986;28;20004;-74
2022/11/03 09:41:01;;;;;;;;;;;18.20;53.40;;;;;;5054231;28;20280;-74
2022/11/03 09:43:26;;;;;;;;;;;18.20;53.40;;;;;;5054135;28;19919;-74
2022/11/03 09:45:52;;;;;;;;;;;18.20;53.50;;;;;;5056001;28;19909;-74
2022/11/03 09:48:17;;;;;;;;;;;18.20;53.50;;;;;;5054522;28;19908;-75
2022/11/03 09:50:43;;;;;;;;;;;18.20;53.50;;;;;;5054529;28;19909;-74
2022/11/03 09:53:09;;;;;;;;;;;18.10;53.40;;;;;;5054113;28;19916;-75
2022/11/03 09:55:34;;;;;;;;;;;18.20;53.50;;;;;;5054161;28;19915;-74
2022/11/03 09:58:00;;;;;;;;;;;18.10;53.40;;;;;;5054751;28;20314;-74
2022/11/03 10:00:28;;;;;;;;;;;18.20;53.50;;;;;;5037442;28;20229;-74
2022/11/03 10:02:54;;;;;;;;;;;18.20;53.50;;;;;;5054094;28;19962;-74
2022/11/03 10:05:22;;;;;;;;;;;18.20;53.40;;;;;;5037242;28;19921;-74
2022/11/03 10:07:47;;;;;;;;;;;18.20;53.30;;;;;;5043109;28;19908;-74
2022/11/03 10:10:17;;;;;;;;;;;18.20;53.30;;;;;;5054201;28;19983;-74
2022/11/03 10:12:42;;;;;;;;;;;18.20;54.10;;;;;;5053374;28;19908;-74
2022/11/03 10:15:12;;;;;;;;;;;18.20;53.40;;;;;;5054075;28;19974;-74
2022/11/03 10:17:38;;;;;;;;;;;18.20;53.50;;;;;;5037134;28;19921;-74
2022/11/03 10:20:04;;;;;;;;;;;18.20;53.50;;;;;;5037124;28;19916;-74
2022/11/03 10:22:30;;;;;;;;;;;18.20;53.50;;;;;;5053831;28;19966;-74
2022/11/03 10:25:14;;;;;;;;;;;18.20;53.40;;;;;;5053663;28;19956;-74
2022/11/03 10:27:39;;;;;;;;;;;18.30;53.50;;;;;;5054204;28;19996;-74
2022/11/03 10:30:06;;;;;;;;;;;18.20;53.50;;;;;;5055054;28;20333;-74
2022/11/03 10:32:35;;;;;;;;;;;18.20;53.50;;;;;;5037104;28;20047;-74
2022/11/03 10:35:01;;;;;;;;;;;18.20;53.50;;;;;;5054096;28;20288;-74
2022/11/03 10:37:27;;;;;;;;;;;18.20;53.50;;;;;;5053738;28;19931;-75
2022/11/03 10:39:53;;;;;;;;;;;18.20;53.50;;;;;;5055101;28;20021;-74
2022/11/03 10:42:19;;;;;;;;;;;18.20;53.50;;;;;;5053266;28;19909;-74
2022/11/03 10:44:44;;;;;;;;;;;18.20;53.50;;;;;;5053586;28;19913;-74
2022/11/03 10:47:21;;;;;;;;;;;18.20;53.50;;;;;;5053130;28;19913;-74
2022/11/03 10:49:47;;;;;;;;;;;18.20;53.50;;;;;;5053380;28;19909;-74
2022/11/03 10:52:19;;;;;;;;;;;18.20;53.50;;;;;;5053285;28;20356;-74
2022/11/03 10:54:45;;;;;;;;;;;18.20;53.50;;;;;;5054756;28;20387;-75
2022/11/03 10:57:11;;;;;;;;;;;18.10;53.40;;;;;;5036179;28;19909;-74
2022/11/03 10:59:37;;;;;;;;;;;18.20;53.50;;;;;;5052867;28;19909;-74
2022/11/03 11:02:02;;;;;;;;;;;18.20;53.50;;;;;;5053148;28;19995;-74
2022/11/03 11:04:28;;;;;;;;;;;18.20;53.50;;;;;;5052705;28;19964;-74
2022/11/03 11:06:56;;;;;;;;;;;18.20;53.60;;;;;;5054277;28;19916;-74
2022/11/03 11:09:24;;;;;;;;;;;18.20;53.70;;;;;;5053315;28;20099;-74
2022/11/03 11:12:00;;;;;;;;;;;18.20;53.70;;;;;;5053750;28;19970;-74
2022/11/03 11:14:26;;;;;;;;;;;18.20;53.80;;;;;;5052505;28;19913;-74
2022/11/03 11:16:53;;;;;;;;;;;18.20;53.70;;;;;;5052819;28;19915;-74
2022/11/03 11:19:19;;;;;;;;;;;18.20;53.70;;;;;;5049335;28;19916;-74
2022/11/03 11:21:46;;;;;;;;;;;18.20;53.70;;;;;;5052842;28;19908;-74
2022/11/03 11:24:12;;;;;;;;;;;18.20;53.70;;;;;;5052573;28;20376;-74
2022/11/03 11:26:38;;;;;;;;;;;18.20;53.80;;;;;;5052300;28;19915;-74
2022/11/03 11:29:10;;;;;;;;;;;18.20;53.90;;;;;;5052328;28;20288;-74
2022/11/03 11:31:35;;;;;;;;;;;18.20;54.00;;;;;;5053673;28;19912;-74
2022/11/03 11:34:17;;;;;;;;;;;18.10;53.90;;;;;;5053882;28;19915;-74
2022/11/03 11:36:43;;;;;;;;;;;18.20;54.10;;;;;;5053841;28;20506;-74
2022/11/03 11:39:09;;;;;;;;;;;18.20;54.00;;;;;;5048362;28;19909;-74
2022/11/03 11:41:54;;;;;;;;;;;18.20;54.00;;;;;;5071953;28;19909;-74
2022/11/03 11:44:37;;;;;;;;;;;18.10;53.90;;;;;;5072989;28;20379;-74
2022/11/03 11:47:16;;;;;;;;;;;18.20;54.10;;;;;;5072173;28;19909;-74
2022/11/03 11:49:42;;;;;;;;;;;18.10;54.10;;;;;;5072291;28;19909;-74
2022/11/03 11:52:07;;;;;;;;;;;18.10;54.10;;;;;;5073488;28;20004;-74
2022/11/03 11:54:33;;;;;;;;;;;18.20;54.20;;;;;;5071947;28;19916;-74
2022/11/03 11:56:58;;;;;;;;;;;18.20;54.10;;;;;;5072844;28;19979;-74
2022/11/03 11:59:23;;;;;;;;;;;18.20;54.10;;;;;;5071429;28;19908;-74
2022/11/03 12:01:50;;;;;;;;;;;18.20;54.10;;;;;;5071874;28;19915;-74
2022/11/03 12:04:25;;;;;;;;;;;18.20;54.10;;;;;;5071364;28;20291;-74
2022/11/03 12:06:51;;;;;;;;;;;18.20;54.10;;;;;;5070980;28;20360;-74
2022/11/03 12:09:20;;;;;;;;;;;18.20;54.20;;;;;;5052056;28;19970;-74
2022/11/03 12:11:53;;;;;;;;;;;18.20;54.10;;;;;;5052643;28;19912;-74
2022/11/03 12:14:25;;;;;;;;;;;18.20;54.10;;;;;;5051539;28;19915;-74
2022/11/03 12:16:51;;;;;;;;;;;18.30;54.10;;;;;;5051611;28;20403;-74
2022/11/03 12:19:32;;;;;;;;;;;18.30;54.10;;;;;;5051811;28;19945;-74
2022/11/03 12:21:57;;;;;;;;;;;18.30;54.10;;;;;;5052961;28;20344;-74
2022/11/03 12:24:34;;;;;;;;;;;18.30;54.20;;;;;;5051441;28;20004;-74
2022/11/03 12:27:02;;;;;;;;;;;18.20;54.20;;;;;;5050543;28;22275;-74
2022/11/03 12:29:28;;;;;;;;;;;18.20;54.10;;;;;;5034550;28;19915;-74
2022/11/03 12:31:53;;;;;;;;;;;18.30;54.20;;;;;;5051537;28;19908;-74
2022/11/03 12:34:19;;;;;;;;;;;18.30;54.20;;;;;;5051712;28;19932;-74
2022/11/03 12:36:44;;;;;;;;;;;18.30;54.20;;;;;;5051458;28;19909;-74
2022/11/03 12:39:10;;;;;;;;;;;18.20;54.20;;;;;;5051653;28;19915;-74
2022/11/03 12:41:35;;;;;;;;;;;18.20;54.20;;;;;;5051044;28;19920;-74
2022/11/03 12:44:01;;;;;;;;;;;18.20;54.20;;;;;;5034111;28;19995;-74
2022/11/03 12:46:26;;;;;;;;;;;18.30;54.30;;;;;;5052394;28;19909;-74
2022/11/03 12:48:52;;;;;;;;;;;18.30;54.30;;;;;;5051434;28;19909;-74
2022/11/03 12:51:18;;;;;;;;;;;18.30;54.30;;;;;;5034804;28;19952;-74
2022/11/03 12:53:44;;;;;;;;;;;18.30;54.20;;;;;;5051268;28;19909;-74
2022/11/03 12:56:09;;;;;;;;;;;18.30;54.20;;;;;;5050902;28;19932;-74
2022/11/03 12:58:35;;;;;;;;;;;18.30;54.20;;;;;;5050924;28;19916;-74
2022/11/03 13:01:00;;;;;;;;;;;18.30;54.90;;;;;;5034491;28;20306;-74
2022/11/03 13:03:26;;;;;;;;;;;18.30;54.40;;;;;;5052346;28;20350;-74
2022/11/03 13:05:51;;;;;;;;;;;18.30;54.40;;;;;;5051238;28;20294;-74
2022/11/03 13:08:17;;;;;;;;;;;18.30;54.50;;;;;;5053179;28;19986;-74
2022/11/03 13:10:42;;;;;;;;;;;18.20;54.40;;;;;;5055251;28;20334;-74
2022/11/03 13:13:08;;;;;;;;;;;18.30;54.50;;;;;;5055588;28;19947;-75
2022/11/03 13:15:33;;;;;;;;;;;18.30;54.50;;;;;;5055286;28;19909;-75
2022/11/03 13:17:59;;;;;;;;;;;18.30;54.50;;;;;;5056566;28;19909;-75
2022/11/03 13:20:24;;;;;;;;;;;18.30;54.50;;;;;;5056465;28;19908;-75
2022/11/03 13:22:50;;;;;;;;;;;18.40;54.60;;;;;;5056198;28;19999;-75
2022/11/03 13:25:15;;;;;;;;;;;18.30;54.50;;;;;;5055151;28;19924;-75
2022/11/03 13:27:41;;;;;;;;;;;18.30;54.50;;;;;;5054109;28;19916;-75
2022/11/03 13:30:06;;;;;;;;;;;18.30;54.50;;;;;;5054894;28;19909;-75
2022/11/03 13:32:32;;;;;;;;;;;18.30;54.50;;;;;;5054760;28;19908;-75
2022/11/03 13:34:57;;;;;;;;;;;18.20;54.50;;;;;;5054709;28;19908;-75
2022/11/03 13:37:23;;;;;;;;;;;18.30;54.60;;;;;;5054703;28;20283;-75
2022/11/03 13:39:48;;;;;;;;;;;18.30;54.60;;;;;;5054682;28;19909;-75
2022/11/03 13:42:14;;;;;;;;;;;18.20;54.60;;;;;;5055621;28;20334;-75
2022/11/03 13:44:39;;;;;;;;;;;18.20;54.60;;;;;;5055397;28;19919;-75
2022/11/03 13:47:05;;;;;;;;;;;18.20;54.60;;;;;;5054784;28;19909;-75
2022/11/03 13:49:30;;;;;;;;;;;18.20;54.60;;;;;;5054425;28;20011;-75
2022/11/03 13:51:55;;;;;;;;;;;18.20;54.70;;;;;;5037843;28;20307;-75
2022/11/03 13:54:21;;;;;;;;;;;18.20;54.70;;;;;;5054265;28;19935;-75
2022/11/03 13:56:46;;;;;;;;;;;18.20;54.70;;;;;;5053943;28;19988;-75
2022/11/03 13:59:12;;;;;;;;;;;18.20;54.70;;;;;;5054054;28;19916;-75
2022/11/03 14:01:37;;;;;;;;;;;18.20;54.70;;;;;;5054391;28;19916;-75
2022/11/03 14:04:03;;;;;;;;;;;18.20;54.70;;;;;;5037398;28;19963;-74
2022/11/03 14:06:28;;;;;;;;;;;18.20;54.70;;;;;;5055749;28;19916;-74
2022/11/03 14:08:54;;;;;;;;;;;18.20;54.70;;;;;;5064477;28;19909;-75
2022/11/03 14:14:03;;;;;;;;;;;18.20;54.70;;;;;;5073854;28;19951;-75
2022/11/03 14:16:29;;;;;;;;;;;18.20;54.80;;;;;;5074037;28;19944;-75
2022/11/03 14:18:54;;;;;;;;;;;18.20;54.80;;;;;;5073137;28;19908;-74
2022/11/03 14:21:19;;;;;;;;;;;18.20;55.00;;;;;;5073420;28;19908;-74
2022/11/03 14:23:45;;;;;;;;;;;18.20;55.00;;;;;;5073669;28;19913;-74
2022/11/03 14:26:10;;;;;;;;;;;18.20;55.00;;;;;;5056668;28;19952;-74
2022/11/03 14:28:36;;;;;;;;;;;18.20;55.00;;;;;;5074600;28;19916;-75
2022/11/03 14:31:04;;;;;;;;;;;18.20;55.00;;;;;;5074011;28;19987;-75
2022/11/03 14:33:29;;;;;;;;;;;18.10;54.80;;;;;;5073443;28;19908;-75